sensor_id;sensor_type;location;lat;lon;timestamp;temperature;humidity
76099;DHT22;64828;49.956;8.636;2023-02-24T00:00:07;8.10;80.20
76099;DHT22;64828;49.956;8.636;2023-02-24T00:00:46;8.10;80.10
76099;DHT22;64828;49.956;8.636;2023-02-24T00:01:12;8.10;80.20
76099;DHT22;64828;49.956;8.636;2023-02-24T00:01:37;8.10;80.20
76099;DHT22;64828;49.956;8.636;2023-02-24T00:01:56;8.10;80.40
76099;DHT22;64828;49.956;8.636;2023-02-24T00:02:19;8.10;80.50
76099;DHT22;64828;49.956;8.636;2023-02-24T00:02:34;8.10;80.40
76099;DHT22;64828;49.956;8.636;2023-02-24T00:02:50;8.10;80.30
76099;DHT22;64828;49.956;8.636;2023-02-24T00:03:06;8.10;80.30
76099;DHT22;64828;49.956;8.636;2023-02-24T00:03:25;8.10;80.30
76099;DHT22;64828;49.956;8.636;2023-02-24T00:03:40;8.10;80.30
76099;DHT22;64828;49.956;8.636;2023-02-24T00:03:59;8.10;80.30
76099;DHT22;64828;49.956;8.636;2023-02-24T00:04:15;8.10;80.30
76099;DHT22;64828;49.956;8.636;2023-02-24T00:04:33;8.10;80.30
76099;DHT22;64828;49.956;8.636;2023-02-24T00:04:52;8.10;80.30
76099;DHT22;64828;49.956;8.636;2023-02-24T00:05:08;8.10;80.10
76099;DHT22;64828;49.956;8.636;2023-02-24T00:05:24;8.10;80.00
76099;DHT22;64828;49.956;8.636;2023-02-24T00:05:40;8.10;80.00
76099;DHT22;64828;49.956;8.636;2023-02-24T00:05:58;8.10;80.10
76099;DHT22;64828;49.956;8.636;2023-02-24T00:06:14;8.10;80.20
76099;DHT22;64828;49.956;8.636;2023-02-24T00:06:29;8.10;80.30
76099;DHT22;64828;49.956;8.636;2023-02-24T00:06:51;8.10;80.20
76099;DHT22;64828;49.956;8.636;2023-02-24T00:07:08;8.10;80.30
76099;DHT22;64828;49.956;8.636;2023-02-24T00:07:25;8.10;80.30
76099;DHT22;64828;49.956;8.636;2023-02-24T00:07:44;8.10;80.30
76099;DHT22;64828;49.956;8.636;2023-02-24T00:07:59;8.10;80.20
76099;DHT22;64828;49.956;8.636;2023-02-24T00:08:15;8.10;80.20
76099;DHT22;64828;49.956;8.636;2023-02-24T00:08:31;8.10;80.20
76099;DHT22;64828;49.956;8.636;2023-02-24T00:08:46;8.10;80.20
76099;DHT22;64828;49.956;8.636;2023-02-24T00:09:15;8.10;80.10
76099;DHT22;64828;49.956;8.636;2023-02-24T00:09:32;8.10;80.20
76099;DHT22;64828;49.956;8.636;2023-02-24T00:09:48;8.10;80.30
76099;DHT22;64828;49.956;8.636;2023-02-24T00:10:04;8.10;80.20
76099;DHT22;64828;49.956;8.636;2023-02-24T00:10:20;8.10;80.20
76099;DHT22;64828;49.956;8.636;2023-02-24T00:10:35;8.10;80.20
76099;DHT22;64828;49.956;8.636;2023-02-24T00:10:51;8.10;80.20
76099;DHT22;64828;49.956;8.636;2023-02-24T00:11:09;8.10;80.20
76099;DHT22;64828;49.956;8.636;2023-02-24T00:11:30;8.10;80.20
76099;DHT22;64828;49.956;8.636;2023-02-24T00:12:03;8.10;80.20
76099;DHT22;64828;49.956;8.636;2023-02-24T00:12:23;8.10;80.10
76099;DHT22;64828;49.956;8.636;2023-02-24T00:12:39;8.10;80.20
76099;DHT22;64828;49.956;8.636;2023-02-24T00:13:01;8.10;80.30
76099;DHT22;64828;49.956;8.636;2023-02-24T00:13:17;8.10;80.30
76099;DHT22;64828;49.956;8.636;2023-02-24T00:13:36;8.10;80.30
76099;DHT22;64828;49.956;8.636;2023-02-24T00:13:52;8.10;80.10
76099;DHT22;64828;49.956;8.636;2023-02-24T00:14:10;8.10;80.10
76099;DHT22;64828;49.956;8.636;2023-02-24T00:14:33;8.10;80.20
76099;DHT22;64828;49.956;8.636;2023-02-24T00:14:50;8.10;80.20
76099;DHT22;64828;49.956;8.636;2023-02-24T00:15:06;8.00;80.20
76099;DHT22;64828;49.956;8.636;2023-02-24T00:15:21;8.10;80.20
76099;DHT22;64828;49.956;8.636;2023-02-24T00:15:37;8.10;80.20
76099;DHT22;64828;49.956;8.636;2023-02-24T00:16:03;8.10;80.20
76099;DHT22;64828;49.956;8.636;2023-02-24T00:16:20;8.00;80.10
76099;DHT22;64828;49.956;8.636;2023-02-24T00:16:38;8.10;80.10
76099;DHT22;64828;49.956;8.636;2023-02-24T00:16:54;8.00;80.20
76099;DHT22;64828;49.956;8.636;2023-02-24T00:17:10;8.10;80.20
76099;DHT22;64828;49.956;8.636;2023-02-24T00:17:28;8.10;80.30
76099;DHT22;64828;49.956;8.636;2023-02-24T00:17:45;8.10;80.30
76099;DHT22;64828;49.956;8.636;2023-02-24T00:18:01;8.10;80.30
76099;DHT22;64828;49.956;8.636;2023-02-24T00:18:21;8.00;80.30
76099;DHT22;64828;49.956;8.636;2023-02-24T00:18:36;8.10;80.20
76099;DHT22;64828;49.956;8.636;2023-02-24T00:18:52;8.00;80.20
76099;DHT22;64828;49.956;8.636;2023-02-24T00:19:09;8.10;80.30
76099;DHT22;64828;49.956;8.636;2023-02-24T00:19:29;8.00;80.20
76099;DHT22;64828;49.956;8.636;2023-02-24T00:19:49;8.00;80.20
76099;DHT22;64828;49.956;8.636;2023-02-24T00:20:04;8.10;80.30
76099;DHT22;64828;49.956;8.636;2023-02-24T00:20:26;8.00;80.30
76099;DHT22;64828;49.956;8.636;2023-02-24T00:20:41;8.00;80.40
76099;DHT22;64828;49.956;8.636;2023-02-24T00:21:05;8.10;80.40
76099;DHT22;64828;49.956;8.636;2023-02-24T00:21:22;8.10;80.40
76099;DHT22;64828;49.956;8.636;2023-02-24T00:21:38;8.10;80.10
76099;DHT22;64828;49.956;8.636;2023-02-24T00:21:54;8.00;80.10
76099;DHT22;64828;49.956;8.636;2023-02-24T00:22:10;8.00;80.10
76099;DHT22;64828;49.956;8.636;2023-02-24T00:22:27;8.10;80.10
76099;DHT22;64828;49.956;8.636;2023-02-24T00:22:42;8.00;80.20
76099;DHT22;64828;49.956;8.636;2023-02-24T00:22:59;8.10;80.30
76099;DHT22;64828;49.956;8.636;2023-02-24T00:23:14;8.10;80.40
76099;DHT22;64828;49.956;8.636;2023-02-24T00:23:34;8.10;80.40
76099;DHT22;64828;49.956;8.636;2023-02-24T00:23:52;8.00;80.40
76099;DHT22;64828;49.956;8.636;2023-02-24T00:24:08;8.10;80.30
76099;DHT22;64828;49.956;8.636;2023-02-24T00:24:25;8.10;80.40
76099;DHT22;64828;49.956;8.636;2023-02-24T00:24:41;8.10;80.20
76099;DHT22;64828;49.956;8.636;2023-02-24T00:24:57;8.10;80.10
76099;DHT22;64828;49.956;8.636;2023-02-24T00:25:16;8.10;80.10
76099;DHT22;64828;49.956;8.636;2023-02-24T00:25:32;8.10;80.20
76099;DHT22;64828;49.956;8.636;2023-02-24T00:25:48;8.00;80.30
76099;DHT22;64828;49.956;8.636;2023-02-24T00:26:15;8.00;80.40
76099;DHT22;64828;49.956;8.636;2023-02-24T00:26:31;8.00;80.80
76099;DHT22;64828;49.956;8.636;2023-02-24T00:26:55;8.00;80.90
76099;DHT22;64828;49.956;8.636;2023-02-24T00:27:13;8.00;80.80
76099;DHT22;64828;49.956;8.636;2023-02-24T00:27:29;8.00;80.70
76099;DHT22;64828;49.956;8.636;2023-02-24T00:27:44;8.10;80.70
76099;DHT22;64828;49.956;8.636;2023-02-24T00:28:00;8.00;80.80
76099;DHT22;64828;49.956;8.636;2023-02-24T00:28:15;8.10;80.70
76099;DHT22;64828;49.956;8.636;2023-02-24T00:28:32;8.00;80.50
76099;DHT22;64828;49.956;8.636;2023-02-24T00:28:49;8.00;80.60
76099;DHT22;64828;49.956;8.636;2023-02-24T00:29:07;8.00;80.60
76099;DHT22;64828;49.956;8.636;2023-02-24T00:29:27;8.00;80.80
76099;DHT22;64828;49.956;8.636;2023-02-24T00:29:44;8.00;80.80
76099;DHT22;64828;49.956;8.636;2023-02-24T00:30:01;8.00;80.90
76099;DHT22;64828;49.956;8.636;2023-02-24T00:30:19;8.00;80.90
76099;DHT22;64828;49.956;8.636;2023-02-24T00:30:35;8.00;80.80
76099;DHT22;64828;49.956;8.636;2023-02-24T00:30:51;8.00;80.60
76099;DHT22;64828;49.956;8.636;2023-02-24T00:31:15;8.00;80.70
76099;DHT22;64828;49.956;8.636;2023-02-24T00:31:31;8.00;80.90
76099;DHT22;64828;49.956;8.636;2023-02-24T00:31:52;8.00;80.30
76099;DHT22;64828;49.956;8.636;2023-02-24T00:32:14;8.00;80.20
76099;DHT22;64828;49.956;8.636;2023-02-24T00:32:30;8.00;80.20
76099;DHT22;64828;49.956;8.636;2023-02-24T00:32:47;8.00;80.40
76099;DHT22;64828;49.956;8.636;2023-02-24T00:33:02;8.00;80.40
76099;DHT22;64828;49.956;8.636;2023-02-24T00:33:18;8.00;80.50
76099;DHT22;64828;49.956;8.636;2023-02-24T00:33:37;8.00;80.50
76099;DHT22;64828;49.956;8.636;2023-02-24T00:33:53;8.00;80.40
76099;DHT22;64828;49.956;8.636;2023-02-24T00:34:11;8.00;80.40
76099;DHT22;64828;49.956;8.636;2023-02-24T00:34:28;8.00;80.40
76099;DHT22;64828;49.956;8.636;2023-02-24T00:34:47;8.00;80.40
76099;DHT22;64828;49.956;8.636;2023-02-24T00:35:03;8.00;80.60
76099;DHT22;64828;49.956;8.636;2023-02-24T00:35:19;8.00;80.60
76099;DHT22;64828;49.956;8.636;2023-02-24T00:35:35;8.00;80.50
76099;DHT22;64828;49.956;8.636;2023-02-24T00:35:50;8.00;80.60
76099;DHT22;64828;49.956;8.636;2023-02-24T00:36:13;8.00;80.60
76099;DHT22;64828;49.956;8.636;2023-02-24T00:36:38;8.00;80.70
76099;DHT22;64828;49.956;8.636;2023-02-24T00:36:54;8.00;80.70
76099;DHT22;64828;49.956;8.636;2023-02-24T00:37:09;8.00;80.80
76099;DHT22;64828;49.956;8.636;2023-02-24T00:37:26;8.00;80.80
76099;DHT22;64828;49.956;8.636;2023-02-24T00:37:41;8.00;80.80
76099;DHT22;64828;49.956;8.636;2023-02-24T00:37:57;8.00;80.80
76099;DHT22;64828;49.956;8.636;2023-02-24T00:38:13;8.00;80.80
76099;DHT22;64828;49.956;8.636;2023-02-24T00:38:28;8.00;80.70
76099;DHT22;64828;49.956;8.636;2023-02-24T00:38:52;8.00;80.70
76099;DHT22;64828;49.956;8.636;2023-02-24T00:39:11;8.00;80.70
76099;DHT22;64828;49.956;8.636;2023-02-24T00:39:28;8.00;80.70
76099;DHT22;64828;49.956;8.636;2023-02-24T00:39:50;8.00;80.80
76099;DHT22;64828;49.956;8.636;2023-02-24T00:40:06;8.00;80.80
76099;DHT22;64828;49.956;8.636;2023-02-24T00:40:25;8.00;80.80
76099;DHT22;64828;49.956;8.636;2023-02-24T00:40:41;7.90;80.80
76099;DHT22;64828;49.956;8.636;2023-02-24T00:40:59;7.90;80.90
76099;DHT22;64828;49.956;8.636;2023-02-24T00:41:17;8.00;80.90
76099;DHT22;64828;49.956;8.636;2023-02-24T00:41:39;8.00;80.80
76099;DHT22;64828;49.956;8.636;2023-02-24T00:41:56;7.90;80.70
76099;DHT22;64828;49.956;8.636;2023-02-24T00:42:18;7.90;80.70
76099;DHT22;64828;49.956;8.636;2023-02-24T00:42:34;7.90;80.70
76099;DHT22;64828;49.956;8.636;2023-02-24T00:42:49;7.90;80.70
76099;DHT22;64828;49.956;8.636;2023-02-24T00:43:06;7.90;80.80
76099;DHT22;64828;49.956;8.636;2023-02-24T00:43:23;7.90;80.80
76099;DHT22;64828;49.956;8.636;2023-02-24T00:43:39;7.90;80.90
76099;DHT22;64828;49.956;8.636;2023-02-24T00:44:03;7.90;81.00
76099;DHT22;64828;49.956;8.636;2023-02-24T00:44:21;7.90;80.90
76099;DHT22;64828;49.956;8.636;2023-02-24T00:44:42;7.90;80.80
76099;DHT22;64828;49.956;8.636;2023-02-24T00:44:59;7.90;80.80
76099;DHT22;64828;49.956;8.636;2023-02-24T00:45:15;8.00;80.70
76099;DHT22;64828;49.956;8.636;2023-02-24T00:45:33;7.90;80.80
76099;DHT22;64828;49.956;8.636;2023-02-24T00:45:51;7.90;80.90
76099;DHT22;64828;49.956;8.636;2023-02-24T00:46:07;7.90;81.00
76099;DHT22;64828;49.956;8.636;2023-02-24T00:46:25;7.90;80.90
76099;DHT22;64828;49.956;8.636;2023-02-24T00:46:45;7.90;80.80
76099;DHT22;64828;49.956;8.636;2023-02-24T00:47:02;7.90;80.80
76099;DHT22;64828;49.956;8.636;2023-02-24T00:47:19;7.90;80.80
76099;DHT22;64828;49.956;8.636;2023-02-24T00:47:37;7.90;80.80
76099;DHT22;64828;49.956;8.636;2023-02-24T00:47:56;7.90;80.90
76099;DHT22;64828;49.956;8.636;2023-02-24T00:48:11;7.90;80.90
76099;DHT22;64828;49.956;8.636;2023-02-24T00:48:29;7.90;80.90
76099;DHT22;64828;49.956;8.636;2023-02-24T00:48:47;7.90;81.00
76099;DHT22;64828;49.956;8.636;2023-02-24T00:49:07;7.90;81.10
76099;DHT22;64828;49.956;8.636;2023-02-24T00:49:27;7.90;81.10
76099;DHT22;64828;49.956;8.636;2023-02-24T00:49:43;7.80;81.10
76099;DHT22;64828;49.956;8.636;2023-02-24T00:49:59;7.90;81.20
76099;DHT22;64828;49.956;8.636;2023-02-24T00:50:15;7.80;81.20
76099;DHT22;64828;49.956;8.636;2023-02-24T00:50:31;7.80;81.30
76099;DHT22;64828;49.956;8.636;2023-02-24T00:50:47;7.80;81.30
76099;DHT22;64828;49.956;8.636;2023-02-24T00:51:03;7.90;81.40
76099;DHT22;64828;49.956;8.636;2023-02-24T00:51:24;7.90;81.40
76099;DHT22;64828;49.956;8.636;2023-02-24T00:51:46;7.80;81.40
76099;DHT22;64828;49.956;8.636;2023-02-24T00:52:03;7.90;81.20
76099;DHT22;64828;49.956;8.636;2023-02-24T00:52:22;7.80;81.10
76099;DHT22;64828;49.956;8.636;2023-02-24T00:52:42;7.80;81.20
76099;DHT22;64828;49.956;8.636;2023-02-24T00:52:57;7.90;81.20
76099;DHT22;64828;49.956;8.636;2023-02-24T00:53:13;7.80;81.20
76099;DHT22;64828;49.956;8.636;2023-02-24T00:53:28;7.80;81.20
76099;DHT22;64828;49.956;8.636;2023-02-24T00:53:44;7.90;81.20
76099;DHT22;64828;49.956;8.636;2023-02-24T00:54:00;7.80;81.20
76099;DHT22;64828;49.956;8.636;2023-02-24T00:54:16;7.80;81.20
76099;DHT22;64828;49.956;8.636;2023-02-24T00:54:36;7.90;81.20
76099;DHT22;64828;49.956;8.636;2023-02-24T00:54:51;7.90;81.10
76099;DHT22;64828;49.956;8.636;2023-02-24T00:55:07;7.80;81.20
76099;DHT22;64828;49.956;8.636;2023-02-24T00:55:29;7.80;81.10
76099;DHT22;64828;49.956;8.636;2023-02-24T00:55:58;7.80;81.00
76099;DHT22;64828;49.956;8.636;2023-02-24T00:56:15;7.80;81.20
76099;DHT22;64828;49.956;8.636;2023-02-24T00:56:32;7.90;81.20
76099;DHT22;64828;49.956;8.636;2023-02-24T00:56:48;7.90;81.30
76099;DHT22;64828;49.956;8.636;2023-02-24T00:57:04;7.90;81.20
76099;DHT22;64828;49.956;8.636;2023-02-24T00:57:22;7.90;81.30
76099;DHT22;64828;49.956;8.636;2023-02-24T00:57:38;7.90;81.30
76099;DHT22;64828;49.956;8.636;2023-02-24T00:57:55;7.90;81.30
76099;DHT22;64828;49.956;8.636;2023-02-24T00:58:10;7.90;81.30
76099;DHT22;64828;49.956;8.636;2023-02-24T00:58:27;7.80;81.00
76099;DHT22;64828;49.956;8.636;2023-02-24T00:58:44;7.80;80.90
76099;DHT22;64828;49.956;8.636;2023-02-24T00:59:00;7.90;80.90
76099;DHT22;64828;49.956;8.636;2023-02-24T00:59:17;7.80;80.90
76099;DHT22;64828;49.956;8.636;2023-02-24T00:59:34;7.90;80.80
76099;DHT22;64828;49.956;8.636;2023-02-24T00:59:50;7.90;80.90
76099;DHT22;64828;49.956;8.636;2023-02-24T01:00:09;7.90;81.00
76099;DHT22;64828;49.956;8.636;2023-02-24T01:00:29;7.80;81.10
76099;DHT22;64828;49.956;8.636;2023-02-24T01:00:50;7.80;80.90
76099;DHT22;64828;49.956;8.636;2023-02-24T01:01:17;7.80;80.90
76099;DHT22;64828;49.956;8.636;2023-02-24T01:01:35;7.80;80.80
76099;DHT22;64828;49.956;8.636;2023-02-24T01:01:52;7.80;80.80
76099;DHT22;64828;49.956;8.636;2023-02-24T01:02:10;7.80;80.80
76099;DHT22;64828;49.956;8.636;2023-02-24T01:02:25;7.90;80.80
76099;DHT22;64828;49.956;8.636;2023-02-24T01:02:41;7.90;80.80
76099;DHT22;64828;49.956;8.636;2023-02-24T01:03:02;7.90;80.90
76099;DHT22;64828;49.956;8.636;2023-02-24T01:03:19;7.90;81.00
76099;DHT22;64828;49.956;8.636;2023-02-24T01:03:34;7.90;81.10
76099;DHT22;64828;49.956;8.636;2023-02-24T01:03:51;7.90;81.10
76099;DHT22;64828;49.956;8.636;2023-02-24T01:04:11;7.80;81.10
76099;DHT22;64828;49.956;8.636;2023-02-24T01:04:28;7.90;81.10
76099;DHT22;64828;49.956;8.636;2023-02-24T01:04:44;7.80;81.10
76099;DHT22;64828;49.956;8.636;2023-02-24T01:05:00;7.80;81.00
76099;DHT22;64828;49.956;8.636;2023-02-24T01:05:19;7.90;81.00
76099;DHT22;64828;49.956;8.636;2023-02-24T01:05:35;7.80;80.90
76099;DHT22;64828;49.956;8.636;2023-02-24T01:05:51;7.90;81.00
76099;DHT22;64828;49.956;8.636;2023-02-24T01:06:07;7.90;80.90
76099;DHT22;64828;49.956;8.636;2023-02-24T01:06:25;7.90;80.90
76099;DHT22;64828;49.956;8.636;2023-02-24T01:06:45;7.90;80.80
76099;DHT22;64828;49.956;8.636;2023-02-24T01:07:03;7.90;80.80
76099;DHT22;64828;49.956;8.636;2023-02-24T01:07:24;7.90;80.80
76099;DHT22;64828;49.956;8.636;2023-02-24T01:07:43;7.90;80.80
76099;DHT22;64828;49.956;8.636;2023-02-24T01:07:59;7.90;80.80
76099;DHT22;64828;49.956;8.636;2023-02-24T01:08:15;7.90;80.80
76099;DHT22;64828;49.956;8.636;2023-02-24T01:08:35;7.90;80.80
76099;DHT22;64828;49.956;8.636;2023-02-24T01:08:56;7.90;80.90
76099;DHT22;64828;49.956;8.636;2023-02-24T01:09:14;7.90;80.80
76099;DHT22;64828;49.956;8.636;2023-02-24T01:09:31;7.90;80.90
76099;DHT22;64828;49.956;8.636;2023-02-24T01:09:49;7.90;80.90
76099;DHT22;64828;49.956;8.636;2023-02-24T01:10:05;7.90;81.00
76099;DHT22;64828;49.956;8.636;2023-02-24T01:10:22;7.90;80.90
76099;DHT22;64828;49.956;8.636;2023-02-24T01:10:41;7.90;81.00
76099;DHT22;64828;49.956;8.636;2023-02-24T01:11:19;7.90;80.90
76099;DHT22;64828;49.956;8.636;2023-02-24T01:11:55;7.90;80.90
76099;DHT22;64828;49.956;8.636;2023-02-24T01:12:30;7.80;81.00
76099;DHT22;64828;49.956;8.636;2023-02-24T01:13:15;7.80;80.90
76099;DHT22;64828;49.956;8.636;2023-02-24T01:13:30;7.90;80.80
76099;DHT22;64828;49.956;8.636;2023-02-24T01:13:47;7.90;80.80
76099;DHT22;64828;49.956;8.636;2023-02-24T01:14:08;7.90;80.90
76099;DHT22;64828;49.956;8.636;2023-02-24T01:14:29;7.90;80.90
76099;DHT22;64828;49.956;8.636;2023-02-24T01:14:47;7.90;80.90
76099;DHT22;64828;49.956;8.636;2023-02-24T01:15:06;7.90;81.00
76099;DHT22;64828;49.956;8.636;2023-02-24T01:15:23;7.90;81.00
76099;DHT22;64828;49.956;8.636;2023-02-24T01:15:38;7.90;81.00
76099;DHT22;64828;49.956;8.636;2023-02-24T01:16:00;7.90;81.00
76099;DHT22;64828;49.956;8.636;2023-02-24T01:16:16;7.90;81.10
76099;DHT22;64828;49.956;8.636;2023-02-24T01:16:35;7.90;81.10
76099;DHT22;64828;49.956;8.636;2023-02-24T01:16:52;7.90;81.20
76099;DHT22;64828;49.956;8.636;2023-02-24T01:17:08;7.90;81.20
76099;DHT22;64828;49.956;8.636;2023-02-24T01:17:24;7.90;81.20
76099;DHT22;64828;49.956;8.636;2023-02-24T01:17:39;7.90;81.10
76099;DHT22;64828;49.956;8.636;2023-02-24T01:17:55;7.90;81.10
76099;DHT22;64828;49.956;8.636;2023-02-24T01:18:10;7.80;81.10
76099;DHT22;64828;49.956;8.636;2023-02-24T01:18:26;7.80;81.10
76099;DHT22;64828;49.956;8.636;2023-02-24T01:18:46;7.90;81.20
76099;DHT22;64828;49.956;8.636;2023-02-24T01:19:04;7.90;81.20
76099;DHT22;64828;49.956;8.636;2023-02-24T01:19:23;7.90;81.10
76099;DHT22;64828;49.956;8.636;2023-02-24T01:19:45;7.90;81.10
76099;DHT22;64828;49.956;8.636;2023-02-24T01:20:05;7.90;81.10
76099;DHT22;64828;49.956;8.636;2023-02-24T01:20:32;7.90;81.20
76099;DHT22;64828;49.956;8.636;2023-02-24T01:20:48;7.90;81.20
76099;DHT22;64828;49.956;8.636;2023-02-24T01:21:04;7.90;81.20
76099;DHT22;64828;49.956;8.636;2023-02-24T01:21:20;7.90;81.10
76099;DHT22;64828;49.956;8.636;2023-02-24T01:21:35;7.90;81.00
76099;DHT22;64828;49.956;8.636;2023-02-24T01:21:51;7.90;81.00
76099;DHT22;64828;49.956;8.636;2023-02-24T01:22:13;7.90;81.00
76099;DHT22;64828;49.956;8.636;2023-02-24T01:22:29;7.90;81.00
76099;DHT22;64828;49.956;8.636;2023-02-24T01:22:48;7.90;81.00
76099;DHT22;64828;49.956;8.636;2023-02-24T01:23:04;7.90;81.00
76099;DHT22;64828;49.956;8.636;2023-02-24T01:23:20;7.90;81.10
76099;DHT22;64828;49.956;8.636;2023-02-24T01:23:38;7.90;81.10
76099;DHT22;64828;49.956;8.636;2023-02-24T01:23:54;7.90;81.10
76099;DHT22;64828;49.956;8.636;2023-02-24T01:24:10;7.90;81.20
76099;DHT22;64828;49.956;8.636;2023-02-24T01:24:27;7.90;81.20
76099;DHT22;64828;49.956;8.636;2023-02-24T01:24:46;7.90;81.30
76099;DHT22;64828;49.956;8.636;2023-02-24T01:25:02;7.90;81.10
76099;DHT22;64828;49.956;8.636;2023-02-24T01:25:18;7.90;81.00
76099;DHT22;64828;49.956;8.636;2023-02-24T01:25:34;7.90;81.10
76099;DHT22;64828;49.956;8.636;2023-02-24T01:25:50;7.90;81.10
76099;DHT22;64828;49.956;8.636;2023-02-24T01:26:08;7.90;81.10
76099;DHT22;64828;49.956;8.636;2023-02-24T01:26:24;7.90;81.10
76099;DHT22;64828;49.956;8.636;2023-02-24T01:26:41;7.90;81.10
76099;DHT22;64828;49.956;8.636;2023-02-24T01:26:58;7.90;81.10
76099;DHT22;64828;49.956;8.636;2023-02-24T01:27:16;7.90;81.20
76099;DHT22;64828;49.956;8.636;2023-02-24T01:27:33;7.90;81.40
76099;DHT22;64828;49.956;8.636;2023-02-24T01:27:51;7.90;81.40
76099;DHT22;64828;49.956;8.636;2023-02-24T01:28:08;7.90;81.20
76099;DHT22;64828;49.956;8.636;2023-02-24T01:28:26;7.90;81.20
76099;DHT22;64828;49.956;8.636;2023-02-24T01:28:42;7.90;81.30
76099;DHT22;64828;49.956;8.636;2023-02-24T01:29:01;7.90;81.20
76099;DHT22;64828;49.956;8.636;2023-02-24T01:29:24;7.90;81.10
76099;DHT22;64828;49.956;8.636;2023-02-24T01:29:40;7.90;81.10
76099;DHT22;64828;49.956;8.636;2023-02-24T01:29:55;7.80;81.20
76099;DHT22;64828;49.956;8.636;2023-02-24T01:30:12;7.80;81.20
76099;DHT22;64828;49.956;8.636;2023-02-24T01:30:29;7.80;81.20
76099;DHT22;64828;49.956;8.636;2023-02-24T01:30:45;7.90;81.20
76099;DHT22;64828;49.956;8.636;2023-02-24T01:31:02;7.90;81.20
76099;DHT22;64828;49.956;8.636;2023-02-24T01:31:19;7.90;81.10
76099;DHT22;64828;49.956;8.636;2023-02-24T01:31:38;7.90;81.20
76099;DHT22;64828;49.956;8.636;2023-02-24T01:31:56;7.90;81.10
76099;DHT22;64828;49.956;8.636;2023-02-24T01:32:15;7.80;81.10
76099;DHT22;64828;49.956;8.636;2023-02-24T01:32:34;7.80;81.30
76099;DHT22;64828;49.956;8.636;2023-02-24T01:32:49;7.80;81.20
76099;DHT22;64828;49.956;8.636;2023-02-24T01:33:05;7.80;81.20
76099;DHT22;64828;49.956;8.636;2023-02-24T01:33:22;7.80;81.20
76099;DHT22;64828;49.956;8.636;2023-02-24T01:33:38;7.90;81.30
76099;DHT22;64828;49.956;8.636;2023-02-24T01:33:53;7.80;81.30
76099;DHT22;64828;49.956;8.636;2023-02-24T01:34:10;7.90;81.50
76099;DHT22;64828;49.956;8.636;2023-02-24T01:34:27;7.90;81.30
76099;DHT22;64828;49.956;8.636;2023-02-24T01:34:43;7.80;81.30
76099;DHT22;64828;49.956;8.636;2023-02-24T01:34:59;7.80;81.40
76099;DHT22;64828;49.956;8.636;2023-02-24T01:35:15;7.80;81.40
76099;DHT22;64828;49.956;8.636;2023-02-24T01:35:30;7.80;81.50
76099;DHT22;64828;49.956;8.636;2023-02-24T01:35:49;7.80;81.40
76099;DHT22;64828;49.956;8.636;2023-02-24T01:36:09;7.80;81.40
76099;DHT22;64828;49.956;8.636;2023-02-24T01:36:28;7.80;81.30
76099;DHT22;64828;49.956;8.636;2023-02-24T01:36:45;7.80;81.40
76099;DHT22;64828;49.956;8.636;2023-02-24T01:37:01;7.80;81.40
76099;DHT22;64828;49.956;8.636;2023-02-24T01:37:16;7.80;81.30
76099;DHT22;64828;49.956;8.636;2023-02-24T01:37:33;7.80;81.30
76099;DHT22;64828;49.956;8.636;2023-02-24T01:37:49;7.80;81.40
76099;DHT22;64828;49.956;8.636;2023-02-24T01:38:04;7.80;81.40
76099;DHT22;64828;49.956;8.636;2023-02-24T01:38:21;7.80;81.50
76099;DHT22;64828;49.956;8.636;2023-02-24T01:38:40;7.80;81.30
76099;DHT22;64828;49.956;8.636;2023-02-24T01:38:59;7.80;81.40
76099;DHT22;64828;49.956;8.636;2023-02-24T01:39:16;7.80;81.40
76099;DHT22;64828;49.956;8.636;2023-02-24T01:39:31;7.80;81.30
76099;DHT22;64828;49.956;8.636;2023-02-24T01:39:47;7.80;81.50
76099;DHT22;64828;49.956;8.636;2023-02-24T01:40:03;7.80;81.60
76099;DHT22;64828;49.956;8.636;2023-02-24T01:40:25;7.80;81.70
76099;DHT22;64828;49.956;8.636;2023-02-24T01:40:41;7.80;81.50
76099;DHT22;64828;49.956;8.636;2023-02-24T01:40:57;7.80;81.40
76099;DHT22;64828;49.956;8.636;2023-02-24T01:41:20;7.80;81.40
76099;DHT22;64828;49.956;8.636;2023-02-24T01:41:39;7.80;81.40
76099;DHT22;64828;49.956;8.636;2023-02-24T01:41:58;7.80;81.40
76099;DHT22;64828;49.956;8.636;2023-02-24T01:42:18;7.80;81.40
76099;DHT22;64828;49.956;8.636;2023-02-24T01:42:35;7.80;81.50
76099;DHT22;64828;49.956;8.636;2023-02-24T01:42:51;7.80;81.50
76099;DHT22;64828;49.956;8.636;2023-02-24T01:43:08;7.80;81.50
76099;DHT22;64828;49.956;8.636;2023-02-24T01:43:25;7.80;81.50
76099;DHT22;64828;49.956;8.636;2023-02-24T01:44:03;7.80;81.50
76099;DHT22;64828;49.956;8.636;2023-02-24T01:45:14;7.70;81.70
76099;DHT22;64828;49.956;8.636;2023-02-24T01:45:32;7.70;81.60
76099;DHT22;64828;49.956;8.636;2023-02-24T01:45:53;7.80;81.70
76099;DHT22;64828;49.956;8.636;2023-02-24T01:46:08;7.70;81.60
76099;DHT22;64828;49.956;8.636;2023-02-24T01:46:25;7.70;81.60
76099;DHT22;64828;49.956;8.636;2023-02-24T01:46:43;7.70;81.60
76099;DHT22;64828;49.956;8.636;2023-02-24T01:46:59;7.70;81.70
76099;DHT22;64828;49.956;8.636;2023-02-24T01:47:17;7.70;81.70
76099;DHT22;64828;49.956;8.636;2023-02-24T01:47:34;7.70;81.70
76099;DHT22;64828;49.956;8.636;2023-02-24T01:47:57;7.70;81.80
76099;DHT22;64828;49.956;8.636;2023-02-24T01:48:17;7.70;81.80
76099;DHT22;64828;49.956;8.636;2023-02-24T01:48:32;7.70;81.90
76099;DHT22;64828;49.956;8.636;2023-02-24T01:48:53;7.70;82.00
76099;DHT22;64828;49.956;8.636;2023-02-24T01:49:26;7.70;82.10
76099;DHT22;64828;49.956;8.636;2023-02-24T01:49:53;7.70;82.10
76099;DHT22;64828;49.956;8.636;2023-02-24T01:50:09;7.70;82.20
76099;DHT22;64828;49.956;8.636;2023-02-24T01:50:29;7.70;82.20
76099;DHT22;64828;49.956;8.636;2023-02-24T01:50:47;7.70;82.20
76099;DHT22;64828;49.956;8.636;2023-02-24T01:51:05;7.60;82.10
76099;DHT22;64828;49.956;8.636;2023-02-24T01:51:24;7.70;82.20
76099;DHT22;64828;49.956;8.636;2023-02-24T01:51:51;7.70;82.30
76099;DHT22;64828;49.956;8.636;2023-02-24T01:52:18;7.60;82.20
76099;DHT22;64828;49.956;8.636;2023-02-24T01:52:38;7.70;82.30
76099;DHT22;64828;49.956;8.636;2023-02-24T01:52:59;7.60;82.30
76099;DHT22;64828;49.956;8.636;2023-02-24T01:53:18;7.60;82.40
76099;DHT22;64828;49.956;8.636;2023-02-24T01:53:34;7.60;82.30
76099;DHT22;64828;49.956;8.636;2023-02-24T01:53:50;7.60;82.20
76099;DHT22;64828;49.956;8.636;2023-02-24T01:54:08;7.60;82.30
76099;DHT22;64828;49.956;8.636;2023-02-24T01:54:36;7.60;82.20
76099;DHT22;64828;49.956;8.636;2023-02-24T01:55:12;7.60;82.20
76099;DHT22;64828;49.956;8.636;2023-02-24T01:55:39;7.60;82.40
76099;DHT22;64828;49.956;8.636;2023-02-24T01:55:58;7.60;82.20
76099;DHT22;64828;49.956;8.636;2023-02-24T01:56:15;7.60;82.20
76099;DHT22;64828;49.956;8.636;2023-02-24T01:56:31;7.60;82.20
76099;DHT22;64828;49.956;8.636;2023-02-24T01:56:49;7.60;82.30
76099;DHT22;64828;49.956;8.636;2023-02-24T01:57:06;7.60;82.10
76099;DHT22;64828;49.956;8.636;2023-02-24T01:57:25;7.60;82.20
76099;DHT22;64828;49.956;8.636;2023-02-24T01:57:44;7.50;82.20
76099;DHT22;64828;49.956;8.636;2023-02-24T01:58:04;7.50;82.10